createdAt,value
2023-01-13T00:01:10.405Z,86.76
2023-01-13T00:04:13.484Z,86.24
2023-01-13T00:07:16.280Z,86.43
2023-01-13T00:10:19.518Z,86.72
2023-01-13T00:13:26.859Z,87.17
2023-01-13T00:16:30.055Z,88.25
2023-01-13T00:19:33.073Z,87.65
2023-01-13T00:22:36.833Z,86.81
2023-01-13T00:25:39.630Z,86.83
2023-01-13T00:28:42.966Z,86.97
2023-01-13T00:31:45.818Z,88.10
2023-01-13T00:34:48.945Z,87.64
2023-01-13T00:37:51.838Z,88.06
2023-01-13T00:41:02.084Z,87.33
2023-01-13T00:44:04.867Z,87.51
2023-01-13T00:47:07.939Z,87.02
2023-01-13T00:50:11.333Z,86.99
2023-01-13T00:53:15.135Z,86.95
2023-01-13T00:56:30.514Z,86.43
2023-01-13T00:59:42.263Z,86.40
2023-01-13T01:02:45.140Z,86.40
2023-01-13T01:05:48.515Z,86.98
2023-01-13T01:08:52.482Z,87.65
2023-01-13T01:11:55.632Z,88.40
2023-01-13T01:14:58.480Z,87.68
2023-01-13T01:18:01.701Z,87.88
2023-01-13T01:21:05.622Z,87.61
2023-01-13T01:24:10.116Z,87.43
2023-01-13T01:27:12.814Z,87.62
2023-01-13T01:30:16.722Z,88.58
2023-01-13T01:33:19.567Z,88.75
2023-01-13T01:36:26.521Z,88.75
2023-01-13T01:39:29.332Z,88.57
2023-01-13T01:42:51.076Z,88.11
2023-01-13T01:45:53.921Z,88.13
2023-01-13T01:49:05.776Z,88.54
2023-01-13T01:52:33.985Z,89.19
2023-01-13T01:55:38.590Z,88.96
2023-01-13T01:58:47.210Z,90.27
2023-01-13T02:01:50.522Z,89.80
2023-01-13T02:04:56.288Z,89.80
2023-01-13T02:08:00.984Z,89.73
2023-01-13T02:11:04.285Z,89.55
2023-01-13T02:14:07.093Z,89.55
2023-01-13T02:17:22.500Z,89.54
2023-01-13T02:21:06.822Z,89.86
2023-01-13T02:24:55.910Z,90.22
2023-01-13T02:29:01.843Z,89.75
2023-01-13T02:32:33.479Z,89.46
2023-01-13T02:35:36.296Z,89.38
2023-01-13T02:39:04.585Z,89.08
2023-01-13T02:42:33.062Z,89.02
2023-01-13T02:45:49.339Z,89.87
2023-01-13T02:48:56.452Z,89.44
2023-01-13T02:52:07.397Z,89.00
2023-01-13T02:55:17.320Z,88.79
2023-01-13T02:58:25.498Z,89.22
2023-01-13T03:01:28.418Z,89.02
2023-01-13T03:04:52.843Z,89.09
2023-01-13T03:08:20.160Z,89.17
2023-01-13T03:11:26.489Z,88.71
2023-01-13T03:15:04.594Z,88.40
2023-01-13T03:18:19.695Z,88.83
2023-01-13T03:21:36.166Z,89.14
2023-01-13T03:24:42.492Z,89.35
2023-01-13T03:28:04.101Z,89.35
2023-01-13T03:31:14.310Z,88.84
2023-01-13T03:34:22.484Z,88.46
2023-01-13T03:37:34.761Z,88.21
2023-01-13T03:40:54.193Z,87.94
2023-01-13T03:44:22.892Z,88.02
2023-01-13T03:47:48.815Z,88.13
2023-01-13T03:50:54.044Z,88.41
2023-01-13T03:54:00.991Z,89.79
2023-01-13T03:57:09.781Z,89.24
2023-01-13T04:00:14.741Z,89.16
2023-01-13T04:03:32.370Z,88.87
2023-01-13T04:07:06.309Z,88.86
2023-01-13T04:10:11.995Z,89.33
2023-01-13T04:13:22.413Z,89.26
2023-01-13T04:16:25.780Z,89.35
2023-01-13T04:19:28.637Z,89.22
2023-01-13T04:22:31.675Z,88.74
2023-01-13T04:25:34.647Z,89.15
2023-01-13T04:28:37.733Z,89.75
2023-01-13T04:31:41.126Z,89.57
2023-01-13T04:34:44.139Z,89.47
2023-01-13T04:37:47.032Z,89.11
2023-01-13T04:40:50.073Z,89.28
2023-01-13T04:43:52.945Z,88.91
2023-01-13T04:46:56.489Z,89.00
2023-01-13T04:49:59.465Z,89.05
2023-01-13T04:53:02.725Z,89.59
2023-01-13T04:56:05.722Z,89.51
2023-01-13T04:59:13.214Z,89.45
2023-01-13T05:02:20.067Z,89.33
2023-01-13T05:05:23.135Z,89.24
2023-01-13T05:08:25.960Z,88.95
2023-01-13T05:11:47.622Z,88.72
2023-01-13T05:15:08.790Z,88.81
2023-01-13T05:18:12.851Z,89.59
2023-01-13T05:21:33.996Z,89.62
2023-01-13T05:24:55.887Z,89.33
2023-01-13T05:28:00.501Z,90.15
2023-01-13T05:31:03.496Z,90.11
2023-01-13T05:34:06.557Z,89.64
2023-01-13T05:37:11.459Z,89.32
2023-01-13T05:40:35.202Z,89.15
2023-01-13T05:43:38.312Z,89.52
2023-01-13T05:46:42.129Z,89.30
2023-01-13T05:49:45.237Z,89.21
2023-01-13T05:52:48.288Z,88.91
2023-01-13T05:55:51.766Z,88.62
2023-01-13T05:58:54.429Z,88.04
2023-01-13T06:01:57.476Z,88.56
2023-01-13T06:05:00.616Z,88.61
2023-01-13T06:08:05.341Z,88.55
2023-01-13T06:11:11.203Z,88.57
2023-01-13T06:14:13.921Z,88.95
2023-01-13T06:17:17.025Z,89.19
2023-01-13T06:20:20.686Z,88.76
2023-01-13T06:23:24.443Z,88.48
2023-01-13T06:26:29.736Z,87.98
2023-01-13T06:29:32.875Z,87.81
2023-01-13T06:32:42.646Z,87.90
2023-01-13T06:35:53.036Z,88.32
2023-01-13T06:39:01.999Z,88.10
2023-01-13T06:42:23.539Z,87.92
2023-01-13T06:45:29.323Z,88.30
2023-01-13T06:48:35.333Z,89.26
2023-01-13T06:51:38.410Z,89.21
2023-01-13T06:54:41.512Z,89.58
2023-01-13T06:57:48.510Z,89.58
2023-01-13T07:00:51.898Z,89.74
2023-01-13T07:03:54.579Z,90.07
2023-01-13T07:06:57.803Z,90.87
2023-01-13T07:10:00.820Z,90.59
2023-01-13T07:13:24.392Z,91.11
2023-01-13T07:16:28.349Z,91.22
2023-01-13T07:19:31.510Z,91.15
2023-01-13T07:22:34.582Z,90.52
2023-01-13T07:25:37.641Z,89.97
2023-01-13T07:28:41.185Z,90.52
2023-01-13T07:31:44.479Z,90.42
2023-01-13T07:34:47.143Z,90.25
2023-01-13T07:37:50.321Z,90.30
2023-01-13T07:40:53.592Z,90.44
2023-01-13T07:43:56.704Z,90.70
2023-01-13T07:46:59.337Z,90.59
2023-01-13T07:50:02.561Z,90.55
2023-01-13T07:53:05.562Z,90.51
2023-01-13T07:56:08.985Z,90.49
2023-01-13T07:59:11.682Z,90.51
2023-01-13T08:02:14.919Z,90.22
2023-01-13T08:05:18.381Z,90.28
2023-01-13T08:08:21.232Z,90.03
2023-01-13T08:11:24.321Z,89.98
2023-01-13T08:14:27.191Z,90.17
2023-01-13T08:17:30.357Z,90.85
2023-01-13T08:20:33.208Z,91.05
2023-01-13T08:23:36.474Z,90.75
2023-01-13T08:26:39.164Z,90.45
2023-01-13T08:29:42.211Z,90.41
2023-01-13T08:32:45.971Z,90.02
2023-01-13T08:35:51.487Z,89.81
2023-01-13T08:38:54.676Z,89.99
2023-01-13T08:41:58.903Z,89.49
2023-01-13T08:45:01.664Z,89.50
2023-01-13T08:48:05.816Z,87.19
2023-01-13T08:51:09.714Z,84.59
2023-01-13T08:54:13.091Z,82.06
2023-01-13T08:57:16.235Z,80.08
2023-01-13T09:00:20.119Z,77.19
2023-01-13T09:03:23.081Z,76.79
2023-01-13T09:06:26.216Z,76.64
2023-01-13T09:09:28.992Z,75.90
2023-01-13T09:12:50.335Z,74.62
2023-01-13T09:15:56.634Z,75.90
2023-01-13T09:18:59.852Z,75.09
2023-01-13T09:22:03.135Z,75.51
2023-01-13T09:25:06.716Z,75.59
2023-01-13T09:28:09.592Z,76.12
2023-01-13T09:31:12.819Z,76.19
2023-01-13T09:34:39.056Z,76.68
2023-01-13T09:37:42.197Z,76.40
2023-01-13T09:40:49.107Z,77.02
2023-01-13T09:43:58.213Z,76.84
2023-01-13T09:47:04.662Z,75.98
2023-01-13T09:50:34.359Z,74.14
2023-01-13T09:53:57.805Z,72.57
2023-01-13T09:57:01.573Z,73.10
2023-01-13T10:00:10.991Z,73.02
2023-01-13T10:03:27.308Z,73.20
2023-01-13T10:06:39.111Z,73.95
2023-01-13T10:09:49.592Z,72.95
2023-01-13T10:13:11.163Z,72.58
2023-01-13T10:16:59.018Z,72.34
2023-01-13T10:20:08.483Z,71.03
2023-01-13T10:23:39.290Z,68.96
2023-01-13T10:27:05.714Z,69.12
2023-01-13T10:30:36.211Z,66.51
2023-01-13T10:33:39.364Z,64.32
2023-01-13T10:37:16.261Z,61.33
2023-01-13T10:40:19.505Z,60.31
2023-01-13T10:43:22.773Z,59.83
2023-01-13T10:46:26.367Z,58.00
2023-01-13T10:49:36.445Z,57.71
2023-01-13T10:52:43.677Z,56.76
2023-01-13T10:56:02.495Z,56.75
2023-01-13T10:59:27.815Z,59.89
2023-01-13T11:02:32.110Z,60.36
2023-01-13T11:05:35.270Z,60.76
2023-01-13T11:08:47.160Z,62.52
2023-01-13T11:11:56.309Z,63.65
2023-01-13T11:15:02.389Z,65.55
2023-01-13T11:18:22.812Z,64.38
2023-01-13T11:21:50.921Z,64.67
2023-01-13T11:25:03.068Z,66.20
2023-01-13T11:28:23.800Z,65.21
2023-01-13T11:31:26.888Z,65.25
2023-01-13T11:34:41.691Z,65.46
2023-01-13T11:37:53.098Z,65.49
2023-01-13T11:41:05.742Z,65.68
2023-01-13T11:44:33.337Z,65.90
2023-01-13T11:47:37.272Z,65.01
2023-01-13T11:50:54.106Z,64.73
2023-01-13T11:54:11.713Z,64.90
2023-01-13T11:57:33.206Z,64.85
2023-01-13T12:00:50.959Z,65.56
2023-01-13T12:04:17.139Z,65.14
2023-01-13T12:07:41.261Z,66.07
2023-01-13T12:11:06.175Z,65.74
2023-01-13T12:14:47.351Z,65.91
2023-01-13T12:18:09.250Z,66.39
2023-01-13T12:21:32.288Z,66.52
2023-01-13T12:24:56.935Z,67.29
2023-01-13T12:28:05.154Z,67.19
2023-01-13T12:31:09.745Z,66.60
2023-01-13T12:34:37.608Z,66.93
2023-01-13T12:37:57.859Z,68.44
2023-01-13T12:41:07.965Z,68.03
2023-01-13T12:44:17.646Z,68.98
2023-01-13T12:47:41.512Z,69.66
2023-01-13T12:50:44.976Z,70.46
2023-01-13T12:53:48.066Z,70.92
2023-01-13T12:56:51.302Z,71.56
2023-01-13T12:59:59.840Z,72.10
2023-01-13T13:03:16.658Z,71.97
2023-01-13T13:06:29.296Z,72.27
2023-01-13T13:09:55.565Z,73.95
2023-01-13T13:13:19.331Z,74.02
2023-01-13T13:16:29.558Z,74.30
2023-01-13T13:19:32.379Z,75.63
2023-01-13T13:22:35.404Z,75.92
2023-01-13T13:26:16.785Z,75.53
2023-01-13T13:29:47.431Z,76.52
2023-01-13T13:33:01.774Z,77.17
2023-01-13T13:36:22.021Z,77.47
2023-01-13T13:39:49.092Z,77.09
2023-01-13T13:43:19.441Z,78.40
2023-01-13T13:46:47.209Z,78.41
2023-01-13T13:49:54.719Z,78.26
2023-01-13T13:53:08.608Z,78.86
2023-01-13T13:56:24.972Z,78.63
2023-01-13T13:59:34.189Z,79.13
2023-01-13T14:02:37.952Z,78.81
2023-01-13T14:06:01.096Z,79.00
2023-01-13T14:09:04.412Z,79.32
2023-01-13T14:12:23.168Z,79.25
2023-01-13T14:15:31.767Z,79.35
2023-01-13T14:18:48.382Z,79.79
2023-01-13T14:21:51.262Z,80.40
2023-01-13T14:24:58.347Z,79.91
2023-01-13T14:28:14.283Z,79.74
2023-01-13T14:31:17.831Z,79.67
2023-01-13T14:34:31.329Z,79.75
2023-01-13T14:37:35.995Z,79.63
2023-01-13T14:40:44.655Z,79.70
2023-01-13T14:43:49.563Z,79.90
2023-01-13T14:46:55.420Z,79.92
2023-01-13T14:50:04.683Z,80.13
2023-01-13T14:53:29.639Z,80.40
2023-01-13T14:56:47.412Z,80.33
2023-01-13T15:00:16.111Z,80.24
2023-01-13T15:03:21.420Z,80.58
2023-01-13T15:06:26.479Z,80.73
2023-01-13T15:09:38.465Z,81.56
2023-01-13T15:12:43.535Z,81.41
2023-01-13T15:15:51.494Z,82.66
2023-01-13T15:18:56.012Z,82.28
2023-01-13T15:21:59.158Z,82.53
2023-01-13T15:25:01.963Z,82.71
2023-01-13T15:28:06.838Z,82.93
2023-01-13T15:31:09.874Z,83.74
2023-01-13T15:34:13.025Z,83.94
2023-01-13T15:37:17.286Z,83.40
2023-01-13T15:40:32.003Z,83.14
2023-01-13T15:43:53.466Z,83.26
2023-01-13T15:46:58.349Z,83.46
2023-01-13T15:50:01.117Z,83.40
2023-01-13T15:53:04.291Z,83.18
2023-01-13T15:56:23.528Z,83.34
2023-01-13T15:59:28.635Z,82.94
2023-01-13T16:02:31.471Z,82.55
2023-01-13T16:05:34.473Z,82.25
2023-01-13T16:08:37.296Z,81.90
2023-01-13T16:11:40.641Z,81.71
2023-01-13T16:14:43.531Z,81.54
2023-01-13T16:17:46.897Z,81.22
2023-01-13T16:20:53.074Z,80.97
2023-01-13T16:23:56.018Z,80.77
2023-01-13T16:26:58.935Z,80.78
2023-01-13T16:30:02.200Z,80.59
2023-01-13T16:33:05.091Z,80.70
2023-01-13T16:36:16.449Z,81.10
2023-01-13T16:39:22.110Z,81.34
2023-01-13T16:42:25.433Z,81.48
2023-01-13T16:45:28.424Z,81.53
2023-01-13T16:48:31.652Z,81.83
2023-01-13T16:51:34.430Z,82.27
2023-01-13T16:54:37.558Z,82.45
2023-01-13T16:57:40.420Z,82.39
2023-01-13T17:00:46.936Z,82.73
2023-01-13T17:03:50.096Z,83.14
2023-01-13T17:07:08.296Z,83.51
2023-01-13T17:10:18.369Z,83.68
2023-01-13T17:13:21.720Z,84.35
2023-01-13T17:16:26.449Z,84.26
2023-01-13T17:19:30.002Z,84.71
2023-01-13T17:22:32.750Z,84.98
2023-01-13T17:25:36.141Z,85.14
2023-01-13T17:28:39.204Z,85.12
2023-01-13T17:31:42.793Z,85.18
2023-01-13T17:34:45.901Z,85.07
2023-01-13T17:37:49.251Z,85.35
2023-01-13T17:40:51.981Z,85.38
2023-01-13T17:43:58.438Z,85.59
2023-01-13T17:47:01.538Z,85.88
2023-01-13T17:50:05.953Z,86.32
2023-01-13T17:53:08.852Z,86.32
2023-01-13T17:56:13.798Z,86.50
2023-01-13T17:59:18.633Z,86.79
2023-01-13T18:02:22.383Z,86.96
2023-01-13T18:05:25.728Z,86.95
2023-01-13T18:08:28.692Z,87.11
2023-01-13T18:11:32.294Z,87.31
2023-01-13T18:14:35.449Z,87.33
2023-01-13T18:17:40.872Z,87.25
2023-01-13T18:21:03.930Z,87.21
2023-01-13T18:24:31.198Z,87.20
2023-01-13T18:27:37.153Z,87.37
2023-01-13T18:30:40.357Z,87.31
2023-01-13T18:33:43.518Z,87.66
2023-01-13T18:36:47.640Z,87.87
2023-01-13T18:39:50.917Z,88.13
2023-01-13T18:42:55.191Z,88.20
2023-01-13T18:45:58.294Z,88.42
2023-01-13T18:49:01.766Z,88.57
2023-01-13T18:52:05.169Z,88.47
2023-01-13T18:55:09.155Z,88.67
2023-01-13T18:58:12.354Z,88.55
2023-01-13T19:01:15.606Z,88.67
2023-01-13T19:04:19.058Z,88.62
2023-01-13T19:07:24.929Z,88.85
2023-01-13T19:10:32.493Z,88.91
2023-01-13T19:13:36.283Z,89.09
2023-01-13T19:16:39.474Z,89.43
2023-01-13T19:19:45.201Z,89.43
2023-01-13T19:22:54.232Z,89.32
2023-01-13T19:26:07.982Z,89.52
2023-01-13T19:29:12.562Z,89.49
2023-01-13T19:32:16.829Z,89.14
2023-01-13T19:35:21.867Z,89.27
2023-01-13T19:38:26.927Z,88.84
2023-01-13T19:41:48.793Z,88.75
2023-01-13T19:45:11.967Z,88.92
2023-01-13T19:48:16.593Z,89.26
2023-01-13T19:51:20.108Z,89.71
2023-01-13T19:54:23.147Z,89.70
2023-01-13T19:57:27.907Z,90.20
2023-01-13T20:00:31.013Z,90.18
2023-01-13T20:03:37.810Z,91.96
2023-01-13T20:06:41.755Z,92.59
2023-01-13T20:09:45.828Z,92.32
2023-01-13T20:12:49.535Z,92.99
2023-01-13T20:15:53.711Z,92.26
2023-01-13T20:18:58.548Z,91.72
2023-01-13T20:22:02.948Z,92.64
2023-01-13T20:25:07.072Z,93.81
2023-01-13T20:28:10.618Z,94.33
2023-01-13T20:31:16.864Z,93.60
2023-01-13T20:34:23.200Z,93.03
2023-01-13T20:37:26.611Z,92.51
2023-01-13T20:40:30.574Z,91.79
2023-01-13T20:43:33.489Z,91.65
2023-01-13T20:46:37.786Z,91.90
2023-01-13T20:49:41.600Z,92.03
2023-01-13T20:52:45.376Z,91.98
2023-01-13T20:55:48.525Z,92.15
2023-01-13T20:58:53.482Z,91.98
2023-01-13T21:01:57.101Z,91.77
2023-01-13T21:05:01.970Z,91.73
2023-01-13T21:08:05.921Z,91.82
2023-01-13T21:11:11.537Z,91.45
2023-01-13T21:14:35.493Z,92.47
2023-01-13T21:17:57.494Z,92.53
2023-01-13T21:21:13.699Z,92.66
2023-01-13T21:24:16.906Z,92.65
2023-01-13T21:27:19.886Z,93.14
2023-01-13T21:30:23.371Z,94.56
2023-01-13T21:33:26.104Z,94.37
2023-01-13T21:36:29.273Z,93.80
2023-01-13T21:39:31.994Z,93.56
2023-01-13T21:42:53.938Z,93.33
2023-01-13T21:46:15.267Z,93.28
2023-01-13T21:49:18.421Z,93.37
2023-01-13T21:52:22.620Z,93.40
2023-01-13T21:55:29.897Z,93.60
2023-01-13T21:58:32.704Z,96.34
2023-01-13T22:01:35.997Z,97.38
2023-01-13T22:04:49.133Z,98.03
2023-01-13T22:07:53.268Z,98.33
2023-01-13T22:11:00.260Z,98.33
2023-01-13T22:14:07.037Z,99.20
2023-01-13T22:17:10.266Z,98.87
2023-01-13T22:20:13.847Z,99.06
2023-01-13T22:23:17.303Z,98.02
2023-01-13T22:26:20.086Z,97.56
2023-01-13T22:29:23.425Z,97.37
2023-01-13T22:32:26.324Z,96.91
2023-01-13T22:35:29.424Z,96.23
2023-01-13T22:38:33.710Z,95.76
2023-01-13T22:41:36.917Z,95.91
2023-01-13T22:44:39.860Z,95.84
2023-01-13T22:47:43.070Z,95.49
2023-01-13T22:50:45.856Z,94.87
2023-01-13T22:53:49.114Z,94.43
2023-01-13T22:56:52.025Z,94.12
2023-01-13T22:59:55.060Z,94.08
2023-01-13T23:02:58.050Z,94.62
2023-01-13T23:06:01.883Z,94.91
2023-01-13T23:09:04.991Z,94.76
2023-01-13T23:12:08.290Z,94.79
2023-01-13T23:15:11.626Z,96.05
2023-01-13T23:18:14.795Z,95.91
2023-01-13T23:21:39.402Z,96.53
2023-01-13T23:24:42.708Z,96.59
2023-01-13T23:27:45.640Z,96.96
2023-01-13T23:30:50.481Z,96.56
2023-01-13T23:33:53.374Z,96.23
2023-01-13T23:36:56.558Z,96.14
2023-01-13T23:39:59.255Z,96.37
2023-01-13T23:43:02.404Z,96.98
2023-01-13T23:46:13.083Z,96.98
2023-01-13T23:49:16.278Z,98.02
2023-01-13T23:52:19.080Z,97.06
2023-01-13T23:55:22.199Z,96.78
2023-01-13T23:58:24.952Z,95.85
